Time;durP1;ratioP1;P1;durP2;ratioP2;P2;SDS_P1;SDS_P2;PMS_P1;PMS_P2;Temp;Humidity;BMP_temperature;BMP_pressure;BME280_temperature;BME280_humidity;BME280_pressure;Samples;Min_cycle;Max_cycle;Signal;HPM_P1;HPM_P2
2021/01/05 00:00:13;;;;;;;1.38;1.27;;;6.80;69.30;;;;;;5008822;28;20034;-74
2021/01/05 00:02:39;;;;;;;1.23;1.13;;;6.80;69.30;;;;;;5007746;28;20555;-74
2021/01/05 00:05:06;;;;;;;1.05;1.00;;;6.80;69.30;;;;;;5007731;28;20578;-75
2021/01/05 00:07:31;;;;;;;1.40;1.27;;;6.80;69.20;;;;;;5005775;28;20041;-73
2021/01/05 00:09:57;;;;;;;1.75;1.08;;;6.80;69.20;;;;;;5005349;28;20022;-73
2021/01/05 00:12:23;;;;;;;1.33;1.10;;;6.80;69.20;;;;;;5003270;28;20026;-71
2021/01/05 00:14:48;;;;;;;1.10;1.00;;;6.80;69.30;;;;;;4999206;28;20038;-74
2021/01/05 00:17:17;;;;;;;1.50;1.40;;;6.90;69.30;;;;;;5004276;28;20121;-74
2021/01/05 00:19:44;;;;;;;1.13;1.00;;;6.80;69.30;;;;;;5003754;28;20030;-72
2021/01/05 00:22:10;;;;;;;2.38;1.00;;;6.80;69.30;;;;;;5001706;28;20034;-73
2021/01/05 00:24:36;;;;;;;1.20;1.10;;;6.80;69.30;;;;;;5008644;28;20034;-73
2021/01/05 00:27:02;;;;;;;1.48;1.38;;;6.90;69.30;;;;;;5003954;28;20059;-73
2021/01/05 00:29:28;;;;;;;0.95;0.90;;;6.80;69.30;;;;;;5003645;28;20054;-72
2021/01/05 00:32:15;;;;;;;2.15;1.95;;;6.90;69.30;;;;;;5003967;28;20061;-73
2021/01/05 00:34:41;;;;;;;1.15;1.08;;;6.90;69.60;;;;;;4999865;28;20033;-73
2021/01/05 00:37:08;;;;;;;0.70;0.70;;;6.90;69.30;;;;;;4998287;28;20042;-74
2021/01/05 00:39:33;;;;;;;1.42;1.20;;;6.90;69.30;;;;;;5002330;28;20136;-73
2021/01/05 00:41:59;;;;;;;1.08;0.93;;;6.90;69.30;;;;;;5002497;28;20499;-73
2021/01/05 00:44:25;;;;;;;1.20;1.10;;;6.90;69.30;;;;;;4985542;28;20088;-73
2021/01/05 00:46:50;;;;;;;1.30;1.13;;;6.90;69.40;;;;;;4993842;28;20057;-74
2021/01/05 00:49:16;;;;;;;1.20;1.10;;;6.90;69.30;;;;;;4991151;28;20041;-73
2021/01/05 00:51:41;;;;;;;0.90;0.90;;;6.90;69.30;;;;;;4982761;28;20050;-73
2021/01/05 00:54:07;;;;;;;2.10;0.90;;;6.90;69.30;;;;;;4992467;28;20113;-74
2021/01/05 00:56:32;;;;;;;1.25;1.15;;;6.90;69.30;;;;;;4983644;28;20053;-73
2021/01/05 00:58:58;;;;;;;1.42;1.33;;;6.80;69.20;;;;;;4987000;28;20463;-74
2021/01/05 01:01:23;;;;;;;1.23;1.13;;;6.90;69.30;;;;;;4990578;28;20044;-74
2021/01/05 01:03:50;;;;;;;1.27;1.17;;;6.90;69.30;;;;;;4988510;28;20029;-73
2021/01/05 01:06:16;;;;;;;1.63;1.35;;;6.90;69.30;;;;;;4990474;28;20434;-74
2021/01/05 01:08:42;;;;;;;1.27;1.17;;;6.90;69.30;;;;;;4987033;28;20460;-73
2021/01/05 01:11:08;;;;;;;1.15;1.05;;;7.00;69.30;;;;;;4984237;28;20117;-74
2021/01/05 01:13:33;;;;;;;1.35;1.25;;;7.00;69.30;;;;;;4977484;28;20458;-74
2021/01/05 01:15:59;;;;;;;1.10;1.00;;;7.00;69.30;;;;;;4991743;28;20050;-71
2021/01/05 01:18:25;;;;;;;1.02;1.00;;;6.90;69.20;;;;;;4995833;28;20034;-72
2021/01/05 01:20:50;;;;;;;1.10;1.00;;;7.00;69.30;;;;;;4987089;28;20113;-72
2021/01/05 01:23:17;;;;;;;0.95;0.93;;;7.00;69.30;;;;;;4992744;28;20048;-72
2021/01/05 01:25:42;;;;;;;1.10;0.70;;;6.90;69.30;;;;;;4986239;28;20109;-71
2021/01/05 01:28:08;;;;;;;1.20;1.10;;;6.90;69.30;;;;;;4991440;28;20112;-72
2021/01/05 01:30:33;;;;;;;1.20;1.05;;;7.00;69.30;;;;;;4984579;28;20030;-72
2021/01/05 01:32:59;;;;;;;0.90;0.90;;;6.90;69.20;;;;;;4990610;28;20076;-72
2021/01/05 01:35:24;;;;;;;0.88;0.80;;;7.00;69.20;;;;;;4993766;28;20029;-71
2021/01/05 01:37:50;;;;;;;0.70;0.70;;;6.90;69.20;;;;;;4986091;28;20122;-72
2021/01/05 01:40:25;;;;;;;0.80;0.80;;;6.90;69.20;;;;;;4989291;28;20043;-70
2021/01/05 01:42:50;;;;;;;0.68;0.60;;;6.90;69.20;;;;;;4987400;28;20035;-70
2021/01/05 01:45:23;;;;;;;0.95;0.85;;;7.00;69.30;;;;;;4990879;28;20030;-71
2021/01/05 01:47:50;;;;;;;1.13;1.00;;;6.90;69.40;;;;;;4984538;28;20033;-72
2021/01/05 01:50:21;;;;;;;0.80;0.70;;;6.90;69.40;;;;;;4991996;28;20034;-71
2021/01/05 01:53:02;;;;;;;1.20;0.80;;;6.90;69.40;;;;;;4981976;28;20483;-70
2021/01/05 01:55:57;;;;;;;0.70;0.70;;;6.90;69.40;;;;;;4992358;28;20547;-72
2021/01/05 01:58:25;;;;;;;0.70;0.70;;;7.00;69.60;;;;;;4987810;28;20405;-72
2021/01/05 02:01:08;;;;;;;0.75;0.75;;;6.90;69.40;;;;;;4979992;28;20034;-72
2021/01/05 02:04:00;;;;;;;0.85;0.73;;;7.00;69.40;;;;;;4991090;28;20120;-70
2021/01/05 02:06:52;;;;;;;1.00;0.77;;;7.00;69.60;;;;;;4989957;28;20037;-73
2021/01/05 02:09:49;;;;;;;1.25;0.90;;;6.90;69.40;;;;;;4987272;28;20057;-72
2021/01/05 02:12:21;;;;;;;1.10;0.73;;;6.90;69.40;;;;;;4987930;28;20034;-71
2021/01/05 02:14:58;;;;;;;1.15;0.77;;;6.90;69.20;;;;;;4987993;28;20140;-72
2021/01/05 02:17:42;;;;;;;1.20;0.80;;;6.90;69.20;;;;;;4992477;28;20057;-72
2021/01/05 02:20:15;;;;;;;0.63;0.50;;;6.90;69.40;;;;;;4978733;28;20038;-71
2021/01/05 02:23:11;;;;;;;1.67;0.80;;;6.90;69.20;;;;;;4992132;28;20057;-70
2021/01/05 02:25:54;;;;;;;0.80;0.73;;;6.90;69.40;;;;;;4992384;28;20053;-72
2021/01/05 02:28:22;;;;;;;1.13;0.88;;;6.90;69.30;;;;;;4990276;28;20041;-72
2021/01/05 02:30:58;;;;;;;1.95;1.08;;;6.90;69.30;;;;;;4979606;28;20034;-73
2021/01/05 02:33:43;;;;;;;0.95;0.75;;;6.90;69.50;;;;;;4991716;28;20034;-71
2021/01/05 02:36:43;;;;;;;3.08;1.20;;;6.90;69.70;;;;;;4986328;28;20522;-72
2021/01/05 02:39:38;;;;;;;1.02;0.82;;;6.90;69.70;;;;;;4986675;28;20046;-72
2021/01/05 02:42:28;;;;;;;1.00;0.95;;;6.90;69.60;;;;;;4978647;28;20026;-70
2021/01/05 02:45:13;;;;;;;0.95;0.75;;;6.90;69.50;;;;;;4984410;28;20046;-71
2021/01/05 02:47:39;;;;;;;1.25;0.95;;;6.90;70.10;;;;;;4991910;28;20542;-72
2021/01/05 02:50:40;;;;;;;1.13;1.02;;;6.90;69.40;;;;;;4972948;28;20026;-70
2021/01/05 02:53:48;;;;;;;1.13;0.90;;;6.90;69.60;;;;;;4979683;28;20048;-72
2021/01/05 02:56:55;;;;;;;0.77;0.77;;;6.90;69.60;;;;;;4967902;28;20527;-72
2021/01/05 02:59:42;;;;;;;0.73;0.70;;;6.90;69.60;;;;;;4973898;28;20038;-71
2021/01/05 03:02:28;;;;;;;0.77;0.70;;;6.90;69.60;;;;;;4963356;28;20044;-70
2021/01/05 03:04:54;;;;;;;1.05;0.90;;;7.00;69.60;;;;;;4970032;28;20467;-72
2021/01/05 03:07:24;;;;;;;1.50;1.10;;;6.90;69.50;;;;;;4986867;23;20070;-75
2021/01/05 03:10:28;;;;;;;3.22;1.15;;;6.90;69.50;;;;;;4970749;28;20057;-74
2021/01/05 03:13:31;;;;;;;0.80;0.63;;;6.90;69.60;;;;;;4969883;28;20040;-75
2021/01/05 03:16:19;;;;;;;0.80;0.77;;;6.90;69.60;;;;;;4979143;28;20038;-74
2021/01/05 03:18:45;;;;;;;0.95;0.77;;;6.90;69.50;;;;;;4993710;28;20026;-74
2021/01/05 03:21:40;;;;;;;1.10;0.90;;;6.90;69.50;;;;;;4985962;28;20037;-75
2021/01/05 03:24:09;;;;;;;0.70;0.70;;;7.00;69.80;;;;;;4981910;28;20030;-75
2021/01/05 03:26:42;;;;;;;1.08;0.98;;;6.90;69.60;;;;;;4993127;28;20517;-75
2021/01/05 03:29:08;;;;;;;1.45;0.80;;;7.00;69.70;;;;;;4987408;28;20033;-75
2021/01/05 03:31:59;;;;;;;0.93;0.82;;;7.00;69.70;;;;;;4985336;28;20507;-74
2021/01/05 03:34:24;;;;;;;0.85;0.85;;;6.90;69.80;;;;;;4992305;28;20074;-75
2021/01/05 03:36:50;;;;;;;1.45;1.17;;;7.10;69.70;;;;;;4991944;28;20113;-75
2021/01/05 03:39:15;;;;;;;1.10;1.00;;;7.00;69.70;;;;;;4989984;28;20076;-75
2021/01/05 03:41:41;;;;;;;0.70;0.70;;;7.00;69.70;;;;;;4992622;28;20049;-75
2021/01/05 03:44:08;;;;;;;1.30;1.10;;;7.00;69.70;;;;;;4987166;28;20045;-75
2021/01/05 03:46:34;;;;;;;1.08;0.82;;;7.00;69.70;;;;;;4990402;28;20029;-75
2021/01/05 03:49:00;;;;;;;0.90;0.90;;;7.00;69.70;;;;;;4983063;28;20034;-75
2021/01/05 03:51:25;;;;;;;0.80;0.80;;;7.10;69.80;;;;;;4989963;28;20045;-75
2021/01/05 03:53:51;;;;;;;1.05;0.77;;;7.10;69.70;;;;;;4993960;28;20041;-75
2021/01/05 03:56:16;;;;;;;1.17;1.00;;;7.00;69.70;;;;;;4978593;28;20026;-75
2021/01/05 03:58:42;;;;;;;1.17;1.02;;;7.00;69.70;;;;;;4990635;28;20033;-75
2021/01/05 04:01:07;;;;;;;1.10;0.98;;;7.10;69.70;;;;;;4979706;28;20100;-75
2021/01/05 04:03:33;;;;;;;0.80;0.70;;;7.10;69.70;;;;;;4990057;28;20112;-75
2021/01/05 04:05:59;;;;;;;1.10;1.00;;;7.10;69.70;;;;;;4985672;28;20034;-75
2021/01/05 04:08:24;;;;;;;0.88;0.60;;;7.10;69.70;;;;;;4995492;28;20034;-76
2021/01/05 04:10:50;;;;;;;1.02;0.80;;;7.00;69.60;;;;;;4990864;28;20045;-75
2021/01/05 04:13:16;;;;;;;1.13;0.90;;;7.10;69.70;;;;;;4986054;28;20104;-76
2021/01/05 04:15:41;;;;;;;1.17;0.80;;;7.10;69.70;;;;;;4983554;28;20458;-74
2021/01/05 04:18:08;;;;;;;0.90;0.82;;;7.00;69.60;;;;;;4984276;28;20037;-75
2021/01/05 04:20:33;;;;;;;1.20;1.00;;;7.10;69.70;;;;;;4989557;28;20398;-75
2021/01/05 04:22:59;;;;;;;1.98;1.10;;;7.10;69.70;;;;;;4989642;28;20116;-75
2021/01/05 04:25:25;;;;;;;0.70;0.70;;;7.10;69.70;;;;;;4993288;28;20034;-75
2021/01/05 04:27:52;;;;;;;0.80;0.75;;;7.10;69.70;;;;;;4991295;28;20033;-76
2021/01/05 04:30:28;;;;;;;1.15;0.80;;;7.10;69.70;;;;;;4979243;28;20050;-75
2021/01/05 04:32:57;;;;;;;0.65;0.65;;;7.10;69.70;;;;;;4979531;28;20033;-75
2021/01/05 04:35:24;;;;;;;1.13;1.00;;;7.20;69.70;;;;;;4987081;28;20037;-76
2021/01/05 04:37:51;;;;;;;1.60;1.50;;;7.10;69.60;;;;;;4990436;28;20093;-75
2021/01/05 04:40:37;;;;;;;1.10;1.00;;;7.20;69.70;;;;;;4986384;28;20034;-75
2021/01/05 04:43:43;;;;;;;0.85;0.80;;;7.10;69.70;;;;;;4984328;28;20731;-73
2021/01/05 04:46:23;;;;;;;0.90;0.80;;;7.10;69.80;;;;;;4966581;28;20092;-75
2021/01/05 04:49:05;;;;;;;0.90;0.90;;;7.10;69.60;;;;;;4987612;28;20097;-75
2021/01/05 04:51:56;;;;;;;1.50;1.35;;;7.10;69.60;;;;;;4985252;28;20037;-75
2021/01/05 04:54:24;;;;;;;;;;;7.10;69.70;;;;;;4984273;28;20053;-75
2021/01/05 04:57:17;;;;;;;1.17;0.80;;;7.10;69.80;;;;;;5008994;28;19993;-75
2021/01/05 05:00:01;;;;;;;0.90;0.80;;;7.20;69.40;;;;;;5007394;28;20407;-75
2021/01/05 05:02:29;;;;;;;0.98;0.75;;;7.10;69.20;;;;;;5002634;28;20032;-75
2021/01/05 05:05:01;;;;;;;1.00;0.90;;;7.10;69.30;;;;;;5009380;28;20037;-75
2021/01/05 05:07:54;;;;;;;0.82;0.82;;;7.00;69.30;;;;;;5008156;28;20045;-75
2021/01/05 05:10:30;;;;;;;0.73;0.73;;;7.10;69.60;;;;;;5004082;28;20030;-75
2021/01/05 05:13:16;;;;;;;0.80;0.70;;;7.10;69.50;;;;;;5019676;28;20034;-75
2021/01/05 05:15:48;;;;;;;0.60;0.60;;;7.00;69.50;;;;;;5006760;28;20472;-75
2021/01/05 05:18:37;;;;;;;0.65;0.50;;;7.00;69.50;;;;;;5008474;28;20156;-75
2021/01/05 05:21:26;;;;;;;0.80;0.80;;;7.00;69.50;;;;;;5001378;28;20091;-75
2021/01/05 05:24:06;;;;;;;1.23;0.90;;;7.00;69.60;;;;;;5002663;28;20022;-75
2021/01/05 05:26:53;;;;;;;0.68;0.55;;;7.00;69.40;;;;;;5002351;28;20022;-75
2021/01/05 05:29:41;;;;;;;0.68;0.68;;;7.00;69.40;;;;;;5003445;28;20056;-76
2021/01/05 05:32:35;;;;;;;0.70;0.70;;;7.00;69.50;;;;;;5001825;28;20033;-75
2021/01/05 05:35:34;;;;;;;0.82;0.80;;;7.00;69.50;;;;;;5001951;28;20041;-75
2021/01/05 05:38:05;;;;;;;0.55;0.55;;;7.00;69.50;;;;;;5007652;28;20034;-75
2021/01/05 05:40:38;;;;;;;0.75;0.75;;;7.00;69.30;;;;;;4980141;28;20034;-75
2021/01/05 05:43:29;;;;;;;0.70;0.50;;;6.90;69.40;;;;;;5000878;28;20084;-75
2021/01/05 05:46:02;;;;;;;0.93;0.80;;;6.90;69.60;;;;;;5002057;28;20052;-75
2021/01/05 05:48:52;;;;;;;0.68;0.68;;;6.90;69.50;;;;;;5008187;28;20022;-75
2021/01/05 05:51:41;;;;;;;0.65;0.60;;;6.90;69.50;;;;;;5000718;28;20379;-75
2021/01/05 05:54:21;;;;;;;0.70;0.60;;;6.90;69.70;;;;;;5002648;28;20546;-75
2021/01/05 05:56:56;;;;;;;0.90;0.80;;;6.90;69.60;;;;;;5002244;28;20032;-76
2021/01/05 05:59:42;;;;;;;0.73;0.73;;;6.90;69.50;;;;;;4994534;28;20063;-76
2021/01/05 06:02:12;;;;;;;0.90;0.80;;;6.90;69.60;;;;;;4999740;28;20410;-76
2021/01/05 06:04:37;;;;;;;1.00;0.90;;;6.90;69.60;;;;;;5004123;28;20033;-77
2021/01/05 06:07:04;;;;;;;0.90;0.90;;;6.90;69.60;;;;;;5005963;28;20095;-77
2021/01/05 06:09:29;;;;;;;0.90;0.88;;;6.90;69.50;;;;;;4998447;28;20035;-77
2021/01/05 06:11:55;;;;;;;1.33;1.15;;;6.80;69.50;;;;;;5006795;28;20041;-76
2021/01/05 06:14:21;;;;;;;1.10;1.00;;;6.90;69.60;;;;;;5005001;28;20565;-76
2021/01/05 06:16:47;;;;;;;1.05;1.00;;;6.80;69.60;;;;;;5003530;28;20038;-76
2021/01/05 06:19:13;;;;;;;0.80;0.80;;;6.90;69.70;;;;;;5005372;28;20034;-76
2021/01/05 06:21:38;;;;;;;1.10;1.00;;;6.90;69.70;;;;;;5004380;28;20053;-77
2021/01/05 06:24:04;;;;;;;0.82;0.80;;;6.90;69.70;;;;;;5002280;28;20136;-75
2021/01/05 06:26:29;;;;;;;1.40;1.17;;;6.90;69.70;;;;;;5002629;28;20045;-77
2021/01/05 06:28:55;;;;;;;1.35;0.95;;;6.90;69.80;;;;;;5002850;28;20042;-77
2021/01/05 06:31:21;;;;;;;1.95;1.60;;;6.80;69.70;;;;;;5000353;28;20125;-76
2021/01/05 06:33:46;;;;;;;1.50;1.40;;;6.80;69.70;;;;;;5008012;28;20035;-75
2021/01/05 06:36:12;;;;;;;2.60;1.40;;;6.90;69.80;;;;;;5007404;28;20034;-76
2021/01/05 06:38:37;;;;;;;1.73;1.55;;;6.80;69.80;;;;;;5006963;28;20034;-76
2021/01/05 06:41:03;;;;;;;1.85;1.30;;;6.80;69.80;;;;;;5006944;28;20026;-76
2021/01/05 06:43:28;;;;;;;1.48;1.10;;;6.80;69.70;;;;;;5005907;28;20037;-76
2021/01/05 06:45:54;;;;;;;1.85;1.65;;;6.90;69.80;;;;;;5006308;28;20092;-75
2021/01/05 06:48:19;;;;;;;1.63;1.40;;;6.90;69.80;;;;;;5007002;28;20133;-75
2021/01/05 06:50:45;;;;;;;1.67;1.58;;;6.90;69.80;;;;;;5005119;28;20022;-75
2021/01/05 06:53:10;;;;;;;1.40;1.25;;;6.80;69.70;;;;;;5005651;28;20508;-75
2021/01/05 06:55:36;;;;;;;1.17;1.08;;;6.90;69.80;;;;;;5001977;28;20132;-75
2021/01/05 06:58:01;;;;;;;1.50;1.40;;;6.90;69.80;;;;;;5003871;28;20081;-76
2021/01/05 07:00:28;;;;;;;1.95;1.27;;;6.90;69.80;;;;;;5004818;28;20529;-75
2021/01/05 07:02:55;;;;;;;1.80;1.63;;;6.90;69.80;;;;;;5004701;28;20041;-75
2021/01/05 07:05:22;;;;;;;1.90;1.38;;;6.90;69.80;;;;;;5007300;28;20069;-74
2021/01/05 07:07:48;;;;;;;2.17;1.92;;;6.80;69.80;;;;;;5007442;28;20034;-75
2021/01/05 07:10:15;;;;;;;4.53;3.92;;;6.90;69.90;;;;;;5009775;28;20022;-75
2021/01/05 07:12:41;;;;;;;3.88;3.45;;;6.90;69.90;;;;;;5006275;28;20391;-76
2021/01/05 07:15:09;;;;;;;2.65;2.30;;;6.90;69.90;;;;;;5007780;28;20129;-75
2021/01/05 07:17:35;;;;;;;3.03;2.30;;;6.80;69.80;;;;;;5006701;28;20030;-76
2021/01/05 07:20:03;;;;;;;2.20;2.00;;;6.90;69.80;;;;;;5007712;28;20498;-75
2021/01/05 07:22:28;;;;;;;2.95;2.63;;;6.80;69.80;;;;;;5005956;28;20152;-75
2021/01/05 07:24:54;;;;;;;2.85;2.55;;;6.90;69.80;;;;;;5007837;28;20499;-75
2021/01/05 07:27:19;;;;;;;3.78;2.90;;;6.90;69.90;;;;;;5006579;28;20022;-75
2021/01/05 07:29:45;;;;;;;2.70;2.42;;;6.90;69.90;;;;;;5003287;28;20132;-76
2021/01/05 07:32:10;;;;;;;2.92;2.60;;;6.80;69.80;;;;;;5004481;28;20121;-76
2021/01/05 07:34:38;;;;;;;2.45;2.22;;;6.90;69.80;;;;;;5001729;28;20041;-74
2021/01/05 07:37:09;;;;;;;2.35;1.92;;;6.80;69.70;;;;;;5007643;28;20511;-75
2021/01/05 07:39:34;;;;;;;2.65;1.92;;;6.90;69.80;;;;;;5005490;28;20030;-75
2021/01/05 07:42:17;;;;;;;4.53;3.22;;;6.90;69.80;;;;;;5006667;28;20065;-76
2021/01/05 07:44:44;;;;;;;2.05;1.83;;;6.90;69.90;;;;;;5004966;28;20033;-75
2021/01/05 07:47:10;;;;;;;2.53;2.17;;;6.90;69.80;;;;;;5005472;28;20030;-76
2021/01/05 07:49:36;;;;;;;2.30;2.08;;;6.90;69.80;;;;;;5005569;28;20034;-76
2021/01/05 07:52:15;;;;;;;2.10;1.90;;;6.90;69.90;;;;;;5004207;28;20038;-76
2021/01/05 07:54:40;;;;;;;2.13;1.50;;;6.80;69.80;;;;;;4995234;28;20038;-76
2021/01/05 07:57:06;;;;;;;2.70;2.30;;;6.80;69.80;;;;;;4998974;28;20061;-75
2021/01/05 07:59:31;;;;;;;2.00;1.80;;;6.90;69.90;;;;;;4987799;28;20027;-75
2021/01/05 08:01:57;;;;;;;2.47;1.70;;;6.90;69.90;;;;;;4988934;28;20034;-76
2021/01/05 08:04:22;;;;;;;2.15;1.95;;;6.90;69.90;;;;;;4990854;28;20037;-76
2021/01/05 08:06:48;;;;;;;1.88;1.65;;;6.90;69.90;;;;;;4991968;28;20030;-76
2021/01/05 08:09:13;;;;;;;1.90;1.70;;;6.90;69.90;;;;;;4995219;28;20030;-76
2021/01/05 08:11:39;;;;;;;2.83;2.33;;;6.90;69.90;;;;;;5001636;28;20450;-76
2021/01/05 08:14:05;;;;;;;2.50;2.13;;;6.90;69.90;;;;;;5000166;28;20530;-76
2021/01/05 08:16:32;;;;;;;2.55;2.35;;;6.90;69.90;;;;;;5000478;28;20110;-76
2021/01/05 08:18:57;;;;;;;1.60;1.50;;;6.90;69.90;;;;;;5003070;28;20041;-78
2021/01/05 08:21:24;;;;;;;2.05;1.55;;;6.90;69.90;;;;;;5002248;28;20026;-76
2021/01/05 08:23:50;;;;;;;2.05;1.85;;;6.90;70.00;;;;;;4998533;28;20117;-76
2021/01/05 08:26:16;;;;;;;1.60;1.50;;;6.90;69.90;;;;;;4988849;28;20125;-76
2021/01/05 08:28:41;;;;;;;2.22;2.00;;;6.90;69.90;;;;;;4988564;28;20030;-76
2021/01/05 08:31:07;;;;;;;2.10;1.85;;;6.90;69.90;;;;;;4992721;28;20111;-76
2021/01/05 08:33:32;;;;;;;2.90;2.60;;;6.90;70.00;;;;;;4987549;28;20377;-77
2021/01/05 08:35:58;;;;;;;2.20;2.00;;;6.90;70.00;;;;;;4988720;28;20121;-75
2021/01/05 08:38:23;;;;;;;2.30;2.10;;;7.00;70.00;;;;;;4987493;28;20026;-76
2021/01/05 08:40:49;;;;;;;2.72;2.38;;;7.00;70.10;;;;;;4987568;28;20026;-76
2021/01/05 08:43:14;;;;;;;2.53;2.25;;;7.00;70.10;;;;;;4986684;28;20492;-76
2021/01/05 08:45:40;;;;;;;3.45;2.35;;;7.00;70.10;;;;;;4988846;28;20563;-76
2021/01/05 08:48:07;;;;;;;3.72;2.40;;;7.00;70.60;;;;;;4986986;28;20122;-76
2021/01/05 08:50:33;;;;;;;2.80;2.08;;;6.90;70.00;;;;;;4988351;28;20118;-76
2021/01/05 08:53:01;;;;;;;2.15;1.95;;;7.10;70.20;;;;;;4992153;28;20125;-77
2021/01/05 08:55:27;;;;;;;2.83;2.45;;;7.00;70.20;;;;;;4972741;28;20419;-76
2021/01/05 08:57:52;;;;;;;2.60;2.22;;;7.00;70.10;;;;;;4976531;28;20060;-76
2021/01/05 09:00:19;;;;;;;2.15;1.95;;;7.00;70.10;;;;;;4972703;28;20515;-76
2021/01/05 09:02:44;;;;;;;3.40;2.90;;;7.10;70.10;;;;;;4976210;28;20038;-76
2021/01/05 09:05:11;;;;;;;2.83;2.53;;;7.00;70.00;;;;;;4968020;28;20042;-75
2021/01/05 09:07:36;;;;;;;4.20;3.35;;;7.00;70.10;;;;;;5012591;23;20046;-71
2021/01/05 09:10:07;;;;;;;2.30;2.10;;;7.10;70.10;;;;;;4991722;28;20044;-73
2021/01/05 09:12:34;;;;;;;2.55;2.35;;;7.10;70.10;;;;;;4983696;28;20052;-72
2021/01/05 09:15:01;;;;;;;4.03;2.30;;;7.10;70.10;;;;;;4994801;28;20460;-75
2021/01/05 09:17:26;;;;;;;3.00;2.00;;;7.10;70.10;;;;;;4995599;28;20059;-73
2021/01/05 09:19:52;;;;;;;2.70;2.35;;;7.10;70.10;;;;;;4993110;28;20494;-73
2021/01/05 09:22:22;;;;;;;2.50;2.30;;;7.10;70.00;;;;;;4983986;28;20041;-73
2021/01/05 09:24:48;;;;;;;2.42;2.22;;;7.40;70.30;;;;;;4991798;28;20026;-73
2021/01/05 09:27:13;;;;;;;3.15;2.85;;;7.20;70.00;;;;;;4985245;28;20037;-74
2021/01/05 09:29:39;;;;;;;2.88;2.60;;;7.10;70.00;;;;;;5004589;28;20045;-73
2021/01/05 09:32:04;;;;;;;2.75;2.50;;;7.20;70.00;;;;;;4999198;28;20026;-72
2021/01/05 09:34:30;;;;;;;3.00;2.70;;;7.20;70.00;;;;;;4985626;28;20526;-75
2021/01/05 09:36:55;;;;;;;3.40;3.08;;;7.20;70.00;;;;;;4992242;28;20407;-74
2021/01/05 09:39:23;;;;;;;3.25;2.70;;;7.20;70.00;;;;;;4987230;28;20064;-74
2021/01/05 09:41:55;;;;;;;4.13;2.90;;;7.20;70.00;;;;;;4993864;28;20414;-74
2021/01/05 09:44:21;;;;;;;3.60;3.22;;;7.20;70.10;;;;;;4983790;28;20091;-74
2021/01/05 09:46:50;;;;;;;4.18;3.78;;;7.20;70.10;;;;;;4991216;28;20453;-73
2021/01/05 09:49:15;;;;;;;3.85;3.25;;;7.20;70.10;;;;;;4988950;28;20045;-73
2021/01/05 09:51:41;;;;;;;5.60;4.65;;;7.30;70.20;;;;;;4992031;28;20041;-73
2021/01/05 09:54:07;;;;;;;6.47;5.78;;;7.20;70.10;;;;;;4993609;28;20087;-74
2021/01/05 09:56:32;;;;;;;5.50;4.30;;;7.20;70.10;;;;;;4987118;28;20080;-74
2021/01/05 09:58:58;;;;;;;4.93;4.15;;;7.30;70.20;;;;;;4990191;28;20045;-75
2021/01/05 10:01:29;;;;;;;4.85;4.13;;;7.30;70.20;;;;;;4985744;28;20515;-73
2021/01/05 10:03:55;;;;;;;5.30;3.90;;;7.30;70.20;;;;;;4986472;28;20060;-75
2021/01/05 10:06:26;;;;;;;4.65;3.67;;;7.30;70.10;;;;;;4988978;28;20034;-74
2021/01/05 10:08:51;;;;;;;4.30;3.60;;;7.30;70.10;;;;;;4991483;28;20089;-74
2021/01/05 10:11:17;;;;;;;4.55;3.78;;;7.30;70.10;;;;;;4993299;28;20041;-72
2021/01/05 10:13:42;;;;;;;4.03;3.17;;;7.30;70.10;;;;;;4984580;28;20056;-73
2021/01/05 10:16:08;;;;;;;3.17;2.88;;;7.30;70.20;;;;;;4990659;28;20049;-72
2021/01/05 10:18:34;;;;;;;3.70;3.30;;;7.30;70.20;;;;;;4995930;28;20044;-73
2021/01/05 10:21:00;;;;;;;2.92;2.63;;;7.30;70.20;;;;;;5004917;28;20038;-74
2021/01/05 10:23:25;;;;;;;3.97;2.95;;;7.40;70.30;;;;;;4999143;28;20033;-74
2021/01/05 10:25:51;;;;;;;3.78;3.35;;;7.40;70.20;;;;;;5006049;28;20056;-75
2021/01/05 10:28:16;;;;;;;4.00;3.60;;;7.40;70.20;;;;;;5009975;28;20113;-74
2021/01/05 10:30:42;;;;;;;2.83;2.53;;;7.40;70.10;;;;;;4994860;28;20045;-74
2021/01/05 10:33:07;;;;;;;2.70;2.38;;;7.40;70.00;;;;;;5009012;28;20029;-74
2021/01/05 10:35:33;;;;;;;3.05;2.75;;;7.40;70.00;;;;;;4997019;28;20052;-74
2021/01/05 10:37:59;;;;;;;2.28;2.08;;;7.40;70.00;;;;;;4997155;28;20049;-74
2021/01/05 10:40:26;;;;;;;2.47;2.28;;;7.50;70.10;;;;;;4993207;28;20029;-74
2021/01/05 10:42:52;;;;;;;2.80;2.50;;;7.40;70.00;;;;;;4996953;28;20368;-74
2021/01/05 10:45:22;;;;;;;2.60;2.40;;;7.40;70.00;;;;;;4993672;28;20041;-74
2021/01/05 10:47:48;;;;;;;5.03;4.57;;;7.50;70.00;;;;;;4987845;28;20425;-74
2021/01/05 10:50:18;;;;;;;6.00;5.07;;;7.50;70.00;;;;;;4994116;28;20277;-75
2021/01/05 10:52:47;;;;;;;4.32;3.75;;;7.40;70.00;;;;;;4988859;28;20096;-74
2021/01/05 10:55:14;;;;;;;3.45;3.15;;;7.40;70.00;;;;;;4992962;28;20068;-75
2021/01/05 10:57:39;;;;;;;2.95;2.70;;;7.40;70.00;;;;;;4993683;28;20117;-73
2021/01/05 11:00:06;;;;;;;3.72;2.22;;;7.40;70.00;;;;;;4992037;28;20121;-74
2021/01/05 11:02:31;;;;;;;2.83;2.47;;;7.50;70.10;;;;;;4986668;28;20030;-72
2021/01/05 11:04:56;;;;;;;2.60;2.00;;;7.40;70.10;;;;;;4994435;28;20032;-75
2021/01/05 11:07:22;;;;;;;14.95;8.73;;;7.40;70.10;;;;;;4991284;28;20036;-74
2021/01/05 11:09:48;;;;;;;8.98;5.63;;;7.40;70.10;;;;;;4988277;28;20496;-74
2021/01/05 11:12:20;;;;;;;6.25;4.38;;;7.40;70.10;;;;;;4991452;28;20038;-75
2021/01/05 11:14:45;;;;;;;5.32;3.70;;;7.40;70.10;;;;;;4986503;28;20125;-73
2021/01/05 11:17:11;;;;;;;2.95;2.60;;;7.50;70.10;;;;;;4991770;28;20125;-74
2021/01/05 11:19:37;;;;;;;3.90;2.70;;;7.50;70.10;;;;;;4989960;28;20030;-74
2021/01/05 11:22:06;;;;;;;4.78;4.20;;;7.40;70.10;;;;;;4995128;28;20030;-74
2021/01/05 11:24:35;;;;;;;4.20;3.58;;;7.40;70.10;;;;;;4991721;28;20030;-75
2021/01/05 11:27:02;;;;;;;3.45;2.70;;;7.40;70.10;;;;;;4995712;28;20558;-74
2021/01/05 11:29:28;;;;;;;2.90;2.30;;;7.50;70.10;;;;;;5002510;28;20034;-74
2021/01/05 11:31:54;;;;;;;2.83;2.40;;;7.40;70.10;;;;;;4996409;28;20057;-75
2021/01/05 11:34:20;;;;;;;2.75;2.55;;;7.50;70.20;;;;;;4997422;28;20491;-75
2021/01/05 11:36:45;;;;;;;2.42;2.00;;;7.50;70.20;;;;;;4988801;28;20046;-74
2021/01/05 11:39:11;;;;;;;2.30;2.08;;;7.40;70.20;;;;;;4994320;28;20498;-76
2021/01/05 11:41:37;;;;;;;2.45;2.15;;;7.50;70.30;;;;;;4991351;28;20029;-75
2021/01/05 11:44:05;;;;;;;1.50;1.38;;;7.40;70.30;;;;;;4996536;28;20483;-74
2021/01/05 11:46:31;;;;;;;2.35;2.10;;;7.50;70.40;;;;;;4998754;28;20034;-75
2021/01/05 11:48:57;;;;;;;3.88;2.72;;;7.50;70.50;;;;;;4988796;28;20480;-75
2021/01/05 11:51:26;;;;;;;2.75;2.38;;;7.60;70.60;;;;;;4998928;28;20061;-74
2021/01/05 11:53:52;;;;;;;2.53;2.22;;;7.60;70.60;;;;;;4989439;28;20026;-76
2021/01/05 11:56:20;;;;;;;2.28;2.00;;;7.60;70.50;;;;;;4992597;28;20527;-75
2021/01/05 11:58:45;;;;;;;2.15;1.63;;;7.60;70.40;;;;;;4988812;28;20030;-76
2021/01/05 12:01:11;;;;;;;1.65;1.42;;;7.70;70.50;;;;;;5001103;28;20056;-75
2021/01/05 12:03:36;;;;;;;2.28;1.95;;;7.70;70.40;;;;;;4997625;28;20057;-76
2021/01/05 12:06:02;;;;;;;1.60;1.48;;;7.70;70.40;;;;;;4987796;28;20034;-75
2021/01/05 12:08:27;;;;;;;1.95;1.70;;;7.70;70.40;;;;;;4994879;28;20466;-75
2021/01/05 12:10:53;;;;;;;1.60;1.50;;;7.70;70.40;;;;;;4994402;28;20041;-75
2021/01/05 12:13:18;;;;;;;1.67;1.58;;;7.70;70.40;;;;;;5005783;28;20034;-75
2021/01/05 12:15:44;;;;;;;1.40;1.30;;;7.70;70.50;;;;;;4998480;28;20026;-73
2021/01/05 12:18:09;;;;;;;2.80;2.10;;;7.70;70.50;;;;;;5007855;28;20056;-74
2021/01/05 12:20:35;;;;;;;1.75;1.50;;;7.80;70.50;;;;;;5004987;28;20747;-74
2021/01/05 12:23:00;;;;;;;1.25;1.10;;;7.80;70.40;;;;;;4997503;28;20034;-75
2021/01/05 12:25:26;;;;;;;2.50;1.35;;;7.80;70.40;;;;;;4992148;28;20562;-74
2021/01/05 12:27:51;;;;;;;1.40;1.30;;;7.80;70.40;;;;;;4988218;28;20026;-76
2021/01/05 12:30:17;;;;;;;1.08;0.90;;;7.80;70.40;;;;;;4992208;28;20521;-77
2021/01/05 12:32:43;;;;;;;1.25;1.10;;;7.80;70.30;;;;;;5000856;28;20025;-76
2021/01/05 12:35:09;;;;;;;1.25;1.10;;;7.90;70.30;;;;;;4998525;28;20034;-74
2021/01/05 12:37:34;;;;;;;2.35;1.20;;;7.90;70.30;;;;;;4994113;28;20052;-73
2021/01/05 12:39:59;;;;;;;1.10;0.90;;;7.90;70.20;;;;;;4987832;28;20060;-73
2021/01/05 12:42:27;;;;;;;1.13;1.02;;;7.90;70.20;;;;;;4990823;28;20030;-75
2021/01/05 12:44:54;;;;;;;0.90;0.77;;;7.90;70.10;;;;;;4989654;28;20046;-77
2021/01/05 12:47:21;;;;;;;0.73;0.70;;;7.90;70.10;;;;;;4991894;28;20041;-74
2021/01/05 12:49:47;;;;;;;0.88;0.70;;;7.90;70.20;;;;;;4994538;28;20517;-75
2021/01/05 12:52:13;;;;;;;1.23;0.80;;;8.00;70.20;;;;;;4999617;28;20486;-75
2021/01/05 12:54:40;;;;;;;0.75;0.75;;;7.90;70.10;;;;;;5003516;28;20045;-75
2021/01/05 12:57:08;;;;;;;0.77;0.65;;;8.00;70.00;;;;;;4994993;28;20645;-75
2021/01/05 12:59:34;;;;;;;0.82;0.82;;;7.90;69.80;;;;;;4991894;28;20076;-74
2021/01/05 13:02:02;;;;;;;1.10;0.93;;;8.00;69.80;;;;;;4989123;28;20030;-75
2021/01/05 13:04:28;;;;;;;0.88;0.70;;;7.90;69.60;;;;;;4997228;28;20033;-73
2021/01/05 13:06:54;;;;;;;0.63;0.63;;;7.90;69.60;;;;;;4987508;28;20037;-75
2021/01/05 13:09:20;;;;;;;1.67;1.13;;;7.90;69.60;;;;;;4993013;28;20041;-75
2021/01/05 13:11:47;;;;;;;1.08;0.90;;;7.90;69.70;;;;;;4994677;28;20038;-75